Time;durP1;ratioP1;P1;durP2;ratioP2;P2;SDS_P1;SDS_P2;PMS_P1;PMS_P2;Temp;Humidity;BMP_temperature;BMP_pressure;BME280_temperature;BME280_humidity;BME280_pressure;Samples;Min_cycle;Max_cycle;Signal;HPM_P1;HPM_P2
2021/10/08 00:03:43;;;;;;;1.53;1.40;;;17.10;76.50;;;;;;10423340;28;20202;-65
2021/10/08 00:09:06;;;;;;;1.60;1.40;;;17.00;76.50;;;;;;10414375;28;20224;-65
2021/10/08 00:14:28;;;;;;;1.60;1.20;;;17.10;76.40;;;;;;10441876;28;20220;-65
2021/10/08 00:19:52;;;;;;;2.37;1.50;;;17.00;76.40;;;;;;10438624;28;20696;-65
2021/10/08 00:25:14;;;;;;;2.10;1.30;;;17.10;76.50;;;;;;10454056;28;20398;-65
2021/10/08 00:30:36;;;;;;;1.67;1.20;;;17.10;76.30;;;;;;10450924;28;20256;-66
2021/10/08 00:35:59;;;;;;;1.50;1.23;;;17.00;76.10;;;;;;10448160;28;20213;-65
2021/10/08 00:41:22;;;;;;;1.53;1.40;;;17.00;76.20;;;;;;10453150;28;20197;-65
2021/10/08 00:46:44;;;;;;;1.50;1.40;;;17.10;76.10;;;;;;10444880;28;20214;-65
2021/10/08 00:52:08;;;;;;;1.37;1.23;;;17.00;76.00;;;;;;10410927;28;20632;-65
2021/10/08 00:57:31;;;;;;;1.73;1.20;;;17.10;76.00;;;;;;10411859;28;20218;-65
2021/10/08 01:02:53;;;;;;;2.40;1.20;;;17.00;75.90;;;;;;10438084;28;20201;-66
2021/10/08 01:08:17;;;;;;;2.17;1.30;;;17.10;76.10;;;;;;10451911;28;20220;-65
2021/10/08 01:13:39;;;;;;;1.13;1.03;;;17.00;75.80;;;;;;10452550;28;20297;-66
2021/10/08 01:19:01;;;;;;;1.40;1.10;;;17.00;75.80;;;;;;10450850;28;20231;-64
2021/10/08 01:24:24;;;;;;;1.90;1.20;;;17.00;75.70;;;;;;10451419;28;20568;-65
2021/10/08 01:29:50;;;;;;;1.57;1.27;;;17.10;75.80;;;;;;10451310;28;20592;-65
2021/10/08 01:35:12;;;;;;;1.37;1.00;;;17.00;76.50;;;;;;10437007;28;20331;-65
2021/10/08 01:40:35;;;;;;;1.53;1.10;;;17.00;75.70;;;;;;10424220;28;20204;-65
2021/10/08 01:45:57;;;;;;;1.10;1.00;;;17.00;75.80;;;;;;10449089;28;20875;-66
2021/10/08 01:51:20;;;;;;;1.37;1.27;;;17.00;75.70;;;;;;10410856;28;20198;-65
2021/10/08 01:56:45;;;;;;;1.53;1.23;;;17.00;75.60;;;;;;10434283;28;20303;-65
2021/10/08 02:02:07;;;;;;;0.80;0.80;;;17.00;75.50;;;;;;10454899;28;20203;-65
2021/10/08 02:07:30;;;;;;;2.50;1.00;;;17.00;75.50;;;;;;10444898;28;20216;-65
2021/10/08 02:12:54;;;;;;;2.27;1.37;;;17.00;75.50;;;;;;10457120;28;20295;-65
2021/10/08 02:18:16;;;;;;;1.20;1.10;;;17.00;75.50;;;;;;10437987;28;20244;-65
2021/10/08 02:23:38;;;;;;;1.20;1.10;;;17.00;75.60;;;;;;10428296;28;20607;-65
2021/10/08 02:29:01;;;;;;;1.20;1.10;;;17.00;75.40;;;;;;10451384;28;20225;-65
2021/10/08 02:34:23;;;;;;;1.80;1.20;;;17.00;75.40;;;;;;10458080;28;20248;-65
2021/10/08 02:39:45;;;;;;;1.20;1.10;;;17.00;75.40;;;;;;10417664;28;20232;-65
2021/10/08 02:45:10;;;;;;;1.30;1.20;;;17.00;75.30;;;;;;10416961;28;20190;-65
2021/10/08 02:50:32;;;;;;;0.83;0.80;;;17.00;75.30;;;;;;10456686;28;20200;-65
2021/10/08 02:55:54;;;;;;;1.53;1.00;;;17.00;75.30;;;;;;10447598;28;20738;-66
2021/10/08 03:01:18;;;;;;;1.73;1.23;;;17.00;75.30;;;;;;10456435;28;20704;-65
2021/10/08 03:06:40;;;;;;;2.03;1.20;;;17.00;75.30;;;;;;10448484;28;20213;-65
2021/10/08 03:12:02;;;;;;;1.73;1.20;;;17.00;75.20;;;;;;10455296;28;20185;-65
2021/10/08 03:17:25;;;;;;;2.13;1.00;;;17.00;75.30;;;;;;10416221;28;20210;-65
2021/10/08 03:22:48;;;;;;;1.30;0.93;;;17.00;75.20;;;;;;10428413;28;20204;-64
2021/10/08 03:28:13;;;;;;;1.67;1.20;;;17.00;75.20;;;;;;10456307;28;20225;-66
2021/10/08 03:33:36;;;;;;;1.23;1.10;;;16.90;75.10;;;;;;10439653;28;20225;-65
2021/10/08 03:38:58;;;;;;;1.40;1.10;;;17.00;75.20;;;;;;10415706;28;20214;-65
2021/10/08 03:44:20;;;;;;;2.67;1.33;;;17.00;75.10;;;;;;10415255;28;20205;-64
2021/10/08 03:49:44;;;;;;;1.20;0.90;;;17.00;75.00;;;;;;10418439;28;20222;-64
2021/10/08 03:55:07;;;;;;;1.30;0.90;;;16.90;75.00;;;;;;10422706;28;20224;-65
2021/10/08 04:00:29;;;;;;;0.90;0.90;;;17.00;75.00;;;;;;10433288;28;20205;-65
2021/10/08 04:05:52;;;;;;;1.20;1.10;;;16.90;74.90;;;;;;10412155;28;20692;-65
2021/10/08 04:11:14;;;;;;;1.33;0.80;;;17.00;74.90;;;;;;10411029;28;20194;-65
2021/10/08 04:16:37;;;;;;;1.30;0.97;;;17.00;75.10;;;;;;10446900;28;20221;-65
2021/10/08 04:22:00;;;;;;;1.20;0.80;;;17.00;74.80;;;;;;10418958;28;20204;-65
2021/10/08 04:27:22;;;;;;;1.00;0.90;;;16.90;74.70;;;;;;10446554;28;20224;-65
2021/10/08 04:32:45;;;;;;;1.80;0.90;;;17.00;74.60;;;;;;10447251;28;20205;-65
2021/10/08 04:38:08;;;;;;;1.20;1.10;;;16.90;74.40;;;;;;10447467;28;20221;-65
2021/10/08 04:43:30;;;;;;;0.90;0.80;;;16.90;74.60;;;;;;10448422;28;20202;-65
2021/10/08 04:48:52;;;;;;;1.63;1.00;;;17.00;74.50;;;;;;10427096;28;20221;-66
2021/10/08 04:54:16;;;;;;;1.23;0.70;;;16.90;74.70;;;;;;10410631;28;20707;-65
2021/10/08 05:04:42;;;;;;;1.27;1.00;;;16.90;74.60;;;;;;10490590;22;20264;-67
2021/10/08 05:10:07;;;;;;;1.17;1.07;;;16.90;74.70;;;;;;10468916;28;20236;-67
2021/10/08 05:15:29;;;;;;;1.40;0.90;;;16.90;74.80;;;;;;10452680;28;20684;-67
2021/10/08 05:20:52;;;;;;;0.80;0.80;;;16.90;74.80;;;;;;10452192;28;20222;-67
2021/10/08 05:26:16;;;;;;;1.47;1.03;;;16.90;74.70;;;;;;10422072;28;20194;-67
2021/10/08 05:31:38;;;;;;;2.47;0.90;;;16.90;74.90;;;;;;10426697;28;20271;-67
2021/10/08 05:37:00;;;;;;;1.53;1.00;;;16.90;74.70;;;;;;10425256;28;20214;-67
2021/10/08 05:42:23;;;;;;;2.93;0.90;;;16.90;74.40;;;;;;10435864;28;20214;-68
2021/10/08 05:47:45;;;;;;;1.87;0.87;;;16.90;74.40;;;;;;10437231;28;20577;-68
2021/10/08 05:53:09;;;;;;;2.20;0.90;;;16.90;74.30;;;;;;10444621;28;20214;-68
2021/10/08 05:58:32;;;;;;;1.20;0.90;;;16.90;74.20;;;;;;10445273;28;20710;-67
2021/10/08 06:03:54;;;;;;;0.80;0.70;;;16.90;74.10;;;;;;10424655;28;20225;-67
2021/10/08 06:09:17;;;;;;;2.17;0.97;;;16.90;74.50;;;;;;10436100;28;20206;-67
2021/10/08 06:14:40;;;;;;;4.63;1.00;;;16.90;74.40;;;;;;10418420;28;20233;-66
2021/10/08 06:20:03;;;;;;;2.37;1.13;;;16.90;74.30;;;;;;10420095;28;20202;-66
2021/10/08 06:25:25;;;;;;;1.40;0.90;;;16.80;74.90;;;;;;10431127;28;20194;-66
2021/10/08 06:30:49;;;;;;;1.70;0.90;;;16.90;74.20;;;;;;10415853;28;20210;-66
2021/10/08 06:36:11;;;;;;;2.00;0.70;;;16.90;74.20;;;;;;10417260;28;20707;-66
2021/10/08 06:41:33;;;;;;;1.40;1.00;;;16.80;74.00;;;;;;10422860;28;20233;-66
2021/10/08 06:46:57;;;;;;;4.10;1.30;;;16.80;73.80;;;;;;10435703;28;20193;-66
2021/10/08 06:52:19;;;;;;;1.50;1.10;;;16.90;73.90;;;;;;10463213;28;20717;-67
2021/10/08 06:57:41;;;;;;;1.17;0.90;;;16.80;73.70;;;;;;10449951;28;20236;-67
2021/10/08 07:03:04;;;;;;;2.40;0.90;;;16.90;73.90;;;;;;10435327;28;20225;-67
2021/10/08 07:08:26;;;;;;;2.60;1.10;;;16.90;74.20;;;;;;10416165;28;20565;-67
2021/10/08 07:13:50;;;;;;;2.00;1.30;;;16.80;74.50;;;;;;10414836;28;20256;-67
2021/10/08 07:19:15;;;;;;;1.70;1.07;;;16.80;74.60;;;;;;10414705;28;20197;-66
2021/10/08 07:24:37;;;;;;;4.23;1.10;;;16.90;74.80;;;;;;10430578;28;20216;-66
2021/10/08 07:29:59;;;;;;;1.07;0.70;;;16.90;74.90;;;;;;10452337;28;20204;-66
2021/10/08 07:35:22;;;;;;;1.27;1.10;;;16.90;75.00;;;;;;10442392;28;20209;-66
2021/10/08 07:40:45;;;;;;;1.40;0.87;;;16.90;75.10;;;;;;10438229;28;20224;-66
2021/10/08 07:46:07;;;;;;;1.07;0.90;;;16.90;75.10;;;;;;10418503;28;20204;-67
2021/10/08 07:51:32;;;;;;;1.93;1.13;;;16.90;75.10;;;;;;10456218;28;20716;-64
2021/10/08 07:56:54;;;;;;;1.83;1.00;;;16.90;74.80;;;;;;10439846;28;20707;-65
2021/10/08 08:02:16;;;;;;;3.50;1.40;;;16.90;74.90;;;;;;10447496;28;20236;-65
2021/10/08 08:07:40;;;;;;;1.73;1.20;;;16.90;75.00;;;;;;10423306;28;20185;-66
2021/10/08 08:13:02;;;;;;;1.63;1.13;;;16.90;75.00;;;;;;10412991;28;20214;-65
2021/10/08 08:18:24;;;;;;;1.43;0.90;;;16.90;75.00;;;;;;10434719;28;20197;-65
2021/10/08 08:23:48;;;;;;;3.70;0.97;;;16.90;75.00;;;;;;10414610;28;20225;-65
2021/10/08 08:29:10;;;;;;;2.17;1.20;;;16.90;75.00;;;;;;10437811;28;20699;-68
2021/10/08 08:34:32;;;;;;;1.83;1.20;;;16.90;75.10;;;;;;10464241;28;20228;-67
2021/10/08 08:39:55;;;;;;;3.13;1.00;;;16.90;75.20;;;;;;10463382;28;20205;-68
2021/10/08 08:45:18;;;;;;;1.27;0.80;;;17.00;75.50;;;;;;10424288;28;20197;-68
2021/10/08 08:50:44;;;;;;;2.00;0.90;;;17.00;75.50;;;;;;10423253;28;20612;-68
2021/10/08 08:56:07;;;;;;;3.00;1.00;;;17.00;75.60;;;;;;10440667;28;20209;-68
2021/10/08 09:01:30;;;;;;;0.90;0.90;;;17.00;75.70;;;;;;10463112;28;20235;-68
2021/10/08 09:06:52;;;;;;;2.27;0.80;;;17.00;75.70;;;;;;10434198;28;20251;-68
2021/10/08 09:12:16;;;;;;;0.97;0.87;;;17.00;75.80;;;;;;10451798;28;20217;-68
2021/10/08 09:17:38;;;;;;;3.30;0.90;;;17.00;75.90;;;;;;10453583;28;20641;-68
2021/10/08 09:23:00;;;;;;;1.10;0.97;;;17.00;76.00;;;;;;10428000;28;20221;-68
2021/10/08 09:28:24;;;;;;;1.77;0.90;;;16.90;76.00;;;;;;10421013;28;20194;-68
2021/10/08 09:33:46;;;;;;;2.50;1.00;;;16.90;76.00;;;;;;10421861;28;20221;-68
2021/10/08 09:39:17;;;;;;;1.67;1.10;;;16.90;76.10;;;;;;10423930;28;20198;-68
2021/10/08 09:44:45;;;;;;;1.13;0.80;;;16.90;76.10;;;;;;10419138;28;20265;-68
2021/10/08 09:50:09;;;;;;;1.37;0.87;;;16.90;76.20;;;;;;10427130;28;20272;-66
2021/10/08 09:55:31;;;;;;;1.53;0.93;;;16.90;76.30;;;;;;10423334;28;20216;-66
2021/10/08 10:01:01;;;;;;;1.63;0.87;;;17.00;76.40;;;;;;10431575;28;20226;-67
2021/10/08 10:06:24;;;;;;;1.97;1.10;;;16.90;76.40;;;;;;10419942;28;20566;-66
2021/10/08 10:11:46;;;;;;;2.27;1.20;;;17.00;76.50;;;;;;10409581;28;20281;-67
2021/10/08 10:17:10;;;;;;;0.80;0.80;;;17.00;76.60;;;;;;10453810;28;20683;-66
2021/10/08 10:22:34;;;;;;;1.07;0.97;;;17.00;76.70;;;;;;10458362;28;20252;-66
2021/10/08 10:27:57;;;;;;;1.80;0.80;;;17.00;76.80;;;;;;10421001;28;20296;-67
2021/10/08 10:33:26;;;;;;;2.90;1.00;;;17.00;76.90;;;;;;10422105;28;20221;-67
2021/10/08 10:38:48;;;;;;;0.83;0.70;;;17.00;77.00;;;;;;10449829;28;20217;-66
2021/10/08 10:44:19;;;;;;;2.23;0.90;;;17.00;77.10;;;;;;10457520;28;20224;-66
2021/10/08 10:49:52;;;;;;;1.43;1.00;;;17.00;77.20;;;;;;10427160;28;20190;-66
2021/10/08 10:55:15;;;;;;;1.47;0.80;;;17.00;77.30;;;;;;10422567;28;20221;-66
2021/10/08 11:06:10;;;;;;;1.53;0.97;;;17.10;77.50;;;;;;10457427;28;20225;-64
2021/10/08 11:11:32;;;;;;;1.60;1.20;;;17.10;77.30;;;;;;10464641;28;20224;-66
2021/10/08 11:16:55;;;;;;;2.63;1.37;;;17.10;77.00;;;;;;10489073;28;20216;-66
2021/10/08 11:22:18;;;;;;;2.47;1.37;;;17.10;77.20;;;;;;10461253;28;20566;-67
2021/10/08 11:27:41;;;;;;;2.10;1.57;;;17.10;77.10;;;;;;10470728;28;20642;-66
2021/10/08 11:33:04;;;;;;;1.80;1.33;;;17.10;77.10;;;;;;10494729;28;20689;-66
2021/10/08 11:38:28;;;;;;;2.07;1.50;;;17.10;77.20;;;;;;10495416;28;20235;-65
2021/10/08 11:44:04;;;;;;;1.20;1.10;;;17.10;77.90;;;;;;10481552;28;20209;-67
2021/10/08 11:55:18;;;;;;;1.53;1.00;;;17.10;77.50;;;;;;10437931;28;20598;-66
2021/10/08 12:00:43;;;;;;;2.90;1.40;;;17.10;77.60;;;;;;10481904;28;20223;-66
2021/10/08 12:06:06;;;;;;;2.00;1.23;;;17.10;77.60;;;;;;10487488;28;20201;-64
2021/10/08 12:11:31;;;;;;;3.67;1.30;;;17.10;77.70;;;;;;10469670;28;20223;-66
2021/10/08 12:16:53;;;;;;;2.60;1.30;;;17.10;77.80;;;;;;10487714;28;20708;-65
2021/10/08 12:22:23;;;;;;;2.57;1.37;;;17.10;77.80;;;;;;10487608;28;20322;-62
2021/10/08 12:27:47;;;;;;;1.63;1.20;;;17.10;78.00;;;;;;10487497;28;20803;-63
2021/10/08 12:33:13;;;;;;;2.70;1.00;;;17.20;78.10;;;;;;10486107;28;20199;-62
2021/10/08 12:38:50;;;;;;;2.30;1.47;;;17.10;78.60;;;;;;10480497;28;20740;-62
2021/10/08 12:44:18;;;;;;;4.77;1.40;;;17.20;78.50;;;;;;10481698;28;20283;-63
2021/10/08 12:49:45;;;;;;;2.30;1.60;;;17.20;78.20;;;;;;10471506;28;20302;-63
2021/10/08 12:55:13;;;;;;;2.77;1.90;;;17.30;78.10;;;;;;10455108;28;20231;-62
2021/10/08 13:00:39;;;;;;;2.00;1.80;;;17.30;77.90;;;;;;10485224;28;20223;-62
2021/10/08 13:06:02;;;;;;;3.77;2.00;;;17.30;77.90;;;;;;10485366;28;20663;-61
2021/10/08 13:11:34;;;;;;;2.43;2.13;;;17.30;77.90;;;;;;10485116;28;20215;-63
2021/10/08 13:16:58;;;;;;;2.70;2.20;;;17.30;77.80;;;;;;10488326;28;20216;-63
2021/10/08 13:22:24;;;;;;;3.77;2.70;;;17.30;77.80;;;;;;10490217;28;20196;-63
2021/10/08 13:27:47;;;;;;;4.20;2.70;;;17.30;77.70;;;;;;10489175;28;20235;-64
2021/10/08 13:33:10;;;;;;;3.20;2.67;;;17.30;77.80;;;;;;10482445;28;20200;-62
2021/10/08 13:38:32;;;;;;;3.53;2.50;;;17.30;77.80;;;;;;10491204;28;20212;-64
2021/10/08 13:43:54;;;;;;;3.50;2.50;;;17.30;77.90;;;;;;10448362;28;20205;-63
2021/10/08 13:49:18;;;;;;;3.37;2.53;;;17.30;77.80;;;;;;10478204;28;20220;-64
2021/10/08 13:54:40;;;;;;;3.17;2.53;;;17.30;77.90;;;;;;10492012;28;20189;-63
2021/10/08 14:00:04;;;;;;;3.47;2.70;;;17.30;78.00;;;;;;10489434;28;20225;-64
2021/10/08 14:05:33;;;;;;;3.63;3.00;;;17.30;78.10;;;;;;10451407;28;20255;-62
2021/10/08 14:10:55;;;;;;;4.53;2.80;;;17.30;78.20;;;;;;10465297;28;20240;-61
2021/10/08 14:16:17;;;;;;;3.00;2.47;;;17.20;78.30;;;;;;10446849;28;20233;-62
2021/10/08 14:21:41;;;;;;;4.60;3.00;;;17.20;78.40;;;;;;10489982;28;20220;-62
2021/10/08 14:27:03;;;;;;;4.30;2.80;;;17.20;78.30;;;;;;10490702;28;20193;-64
2021/10/08 14:32:25;;;;;;;3.53;3.23;;;17.20;78.20;;;;;;10482627;28;20192;-65
2021/10/08 14:37:49;;;;;;;3.57;3.27;;;17.20;78.30;;;;;;10479374;28;20299;-64
2021/10/08 14:43:11;;;;;;;4.03;3.37;;;17.20;78.20;;;;;;10473124;28;20198;-65
2021/10/08 14:48:33;;;;;;;3.10;2.80;;;17.20;78.20;;;;;;10471680;28;20224;-65
2021/10/08 14:54:00;;;;;;;4.20;2.87;;;17.20;78.20;;;;;;10448711;28;20198;-64
2021/10/08 14:59:22;;;;;;;3.43;2.80;;;17.20;78.20;;;;;;10450638;28;20270;-63
2021/10/08 15:04:44;;;;;;;6.20;3.47;;;17.20;78.20;;;;;;10477895;28;20430;-65
2021/10/08 15:10:09;;;;;;;4.67;3.30;;;17.30;77.70;;;;;;10496816;28;20217;-63
2021/10/08 15:15:31;;;;;;;4.63;3.53;;;17.30;77.70;;;;;;10490573;28;20226;-64
2021/10/08 15:20:53;;;;;;;5.03;4.03;;;17.20;77.90;;;;;;10488506;28;20220;-64
2021/10/08 15:26:17;;;;;;;6.83;5.10;;;17.20;78.00;;;;;;10495273;28;20566;-65
2021/10/08 15:31:39;;;;;;;8.03;6.30;;;17.20;78.00;;;;;;10496586;28;20593;-65
2021/10/08 15:37:01;;;;;;;9.83;6.07;;;17.10;78.00;;;;;;10495015;28;20219;-64
2021/10/08 15:42:25;;;;;;;10.07;6.67;;;17.20;78.10;;;;;;10495695;28;20189;-65
2021/10/08 15:47:48;;;;;;;9.20;7.20;;;17.10;78.10;;;;;;10495779;28;20571;-64
2021/10/08 15:53:10;;;;;;;11.87;8.00;;;17.10;78.10;;;;;;10495600;28;20193;-65
2021/10/08 15:58:33;;;;;;;12.47;9.37;;;17.10;78.10;;;;;;10495465;28;20220;-64
2021/10/08 16:03:55;;;;;;;11.37;9.03;;;17.10;77.90;;;;;;10487174;28;20609;-64
2021/10/08 16:09:18;;;;;;;16.97;10.67;;;17.10;78.20;;;;;;10451519;28;20758;-64
2021/10/08 16:14:42;;;;;;;17.73;10.80;;;17.10;78.20;;;;;;10490007;28;20573;-65
2021/10/08 16:20:05;;;;;;;15.03;11.30;;;17.10;78.30;;;;;;10494525;28;20205;-66
2021/10/08 16:25:28;;;;;;;13.80;10.83;;;17.10;78.40;;;;;;10483335;28;20203;-67
2021/10/08 16:30:51;;;;;;;15.80;11.03;;;17.10;78.40;;;;;;10487838;28;20224;-66
2021/10/08 16:36:13;;;;;;;14.53;10.77;;;17.10;78.50;;;;;;10489902;28;20216;-67
2021/10/08 16:41:35;;;;;;;13.43;10.60;;;17.10;78.50;;;;;;10481617;28;20216;-66
2021/10/08 16:47:00;;;;;;;14.10;10.50;;;17.10;78.50;;;;;;10491407;28;20199;-66
2021/10/08 16:52:23;;;;;;;12.53;10.17;;;17.10;78.50;;;;;;10490463;28;20200;-67
2021/10/08 16:57:45;;;;;;;12.87;10.17;;;17.10;78.60;;;;;;10488694;28;20220;-66
2021/10/08 17:03:09;;;;;;;11.30;9.73;;;17.10;78.60;;;;;;10457310;22;1072884;-65
2021/10/08 17:08:31;;;;;;;13.73;9.70;;;17.10;78.60;;;;;;10444289;28;20643;-66
2021/10/08 17:13:53;;;;;;;14.90;9.40;;;17.10;78.60;;;;;;10440524;28;20212;-65
2021/10/08 17:19:16;;;;;;;10.57;9.10;;;17.10;78.60;;;;;;10450072;28;20253;-64
2021/10/08 17:24:38;;;;;;;11.57;8.80;;;17.10;78.60;;;;;;10449519;28;20200;-65
2021/10/08 17:35:38;;;;;;;11.70;9.50;;;17.10;78.60;;;;;;10409503;28;20691;-63
2021/10/08 17:41:00;;;;;;;11.57;9.33;;;17.10;78.70;;;;;;10410575;28;20218;-64
2021/10/08 17:46:23;;;;;;;10.17;9.03;;;17.10;78.70;;;;;;10410312;28;20190;-62
2021/10/08 17:51:46;;;;;;;9.30;8.33;;;17.10;78.70;;;;;;10410239;28;20226;-62
2021/10/08 17:57:08;;;;;;;9.77;8.57;;;17.10;78.60;;;;;;10407780;28;20579;-64
2021/10/08 18:02:30;;;;;;;9.63;8.63;;;17.10;78.60;;;;;;10452472;28;20201;-65
2021/10/08 18:07:54;;;;;;;9.63;8.60;;;17.10;78.60;;;;;;10440019;28;20213;-64
2021/10/08 18:13:16;;;;;;;8.90;8.00;;;17.10;78.60;;;;;;10427739;28;20698;-63
2021/10/08 18:18:38;;;;;;;9.33;8.40;;;17.10;78.60;;;;;;10415553;28;20228;-64
2021/10/08 18:24:03;;;;;;;9.07;7.93;;;17.10;78.70;;;;;;10440504;28;20204;-63
2021/10/08 18:29:32;;;;;;;10.73;8.53;;;17.10;78.70;;;;;;10402910;28;20236;-64
2021/10/08 18:34:55;;;;;;;9.77;8.23;;;17.10;78.60;;;;;;10418728;28;20194;-63
2021/10/08 18:40:21;;;;;;;8.83;7.63;;;17.10;78.60;;;;;;10412300;28;20255;-64
2021/10/08 18:45:43;;;;;;;8.47;7.57;;;17.10;79.10;;;;;;10419803;28;20697;-64
2021/10/08 18:51:05;;;;;;;8.27;7.47;;;17.10;78.60;;;;;;10450592;28;20720;-64
2021/10/08 18:56:29;;;;;;;8.73;7.80;;;17.00;78.50;;;;;;10434264;28;20224;-64
2021/10/08 19:01:53;;;;;;;8.90;7.87;;;17.10;78.60;;;;;;10409977;28;20225;-63
2021/10/08 19:07:15;;;;;;;8.43;7.30;;;17.10;78.50;;;;;;10409324;28;20206;-63
2021/10/08 19:12:40;;;;;;;8.27;7.37;;;17.10;78.50;;;;;;10408837;28;20202;-64
2021/10/08 19:23:48;;;;;;;9.97;7.27;;;17.10;78.50;;;;;;10400824;28;20270;-64
2021/10/08 19:29:12;;;;;;;8.93;8.03;;;17.00;78.50;;;;;;10444318;28;20235;-63
2021/10/08 19:34:34;;;;;;;8.20;7.40;;;17.10;78.50;;;;;;10450375;28;20570;-64
2021/10/08 19:39:56;;;;;;;9.47;7.83;;;17.10;78.50;;;;;;10452628;28;20225;-64
2021/10/08 19:45:23;;;;;;;8.87;7.97;;;17.00;78.40;;;;;;10450391;28;20198;-64
2021/10/08 19:50:46;;;;;;;8.70;7.57;;;17.10;78.50;;;;;;10453881;28;20296;-65
2021/10/08 19:56:08;;;;;;;9.27;7.27;;;17.00;78.40;;;;;;10432828;28;20320;-64
2021/10/08 20:01:32;;;;;;;9.30;8.00;;;17.10;78.50;;;;;;10431686;28;20222;-64
2021/10/08 20:12:03;;;;;;;8.43;7.20;;;17.00;78.40;;;;;;10430304;28;20201;-64
2021/10/08 20:12:59;;;;;;;9.27;7.87;;;17.10;78.50;;;;;;10431013;28;20578;-63
2021/10/08 20:18:23;;;;;;;7.37;6.67;;;17.00;78.40;;;;;;10431707;28;20220;-63
2021/10/08 20:23:45;;;;;;;8.57;7.30;;;17.00;78.50;;;;;;10429140;28;20574;-63
2021/10/08 20:29:07;;;;;;;9.33;7.23;;;17.00;78.50;;;;;;10427315;28;20227;-63
2021/10/08 20:34:31;;;;;;;7.63;6.93;;;17.00;78.50;;;;;;10432335;28;20205;-63
2021/10/08 20:39:53;;;;;;;7.80;7.00;;;17.10;78.60;;;;;;10413091;28;20221;-63
2021/10/08 20:45:16;;;;;;;7.93;7.13;;;17.00;78.50;;;;;;10414446;28;20197;-64
2021/10/08 20:50:40;;;;;;;7.10;6.40;;;17.00;78.60;;;;;;10450167;28;20245;-63
2021/10/08 20:56:02;;;;;;;7.77;6.83;;;17.00;78.50;;;;;;10452536;28;20235;-63
2021/10/08 21:01:24;;;;;;;7.40;6.70;;;17.00;78.60;;;;;;10442980;28;20213;-64
2021/10/08 21:06:47;;;;;;;6.57;5.97;;;17.00;78.50;;;;;;10447641;28;20212;-63
2021/10/08 21:12:09;;;;;;;7.40;6.40;;;17.00;78.60;;;;;;10450418;28;20666;-63
2021/10/08 21:17:32;;;;;;;8.43;7.23;;;17.00;78.60;;;;;;10438505;28;20217;-64
2021/10/08 21:22:55;;;;;;;6.93;6.23;;;17.00;78.50;;;;;;10450022;28;20571;-64
2021/10/08 21:28:17;;;;;;;7.87;5.90;;;17.00;78.60;;;;;;10450313;28;20209;-63
2021/10/08 21:33:41;;;;;;;6.83;6.20;;;17.00;78.60;;;;;;10444493;28;20193;-64
2021/10/08 21:39:08;;;;;;;6.90;6.30;;;17.00;78.60;;;;;;10408643;28;20224;-63
2021/10/08 21:44:31;;;;;;;6.70;6.10;;;17.10;78.60;;;;;;10449755;28;20578;-63
2021/10/08 21:49:53;;;;;;;6.93;6.23;;;17.00;78.60;;;;;;10449201;28;20820;-64
2021/10/08 21:55:17;;;;;;;6.73;6.03;;;17.00;78.50;;;;;;10428508;28;20237;-63
2021/10/08 22:01:11;;;;;;;7.60;6.87;;;17.00;78.60;;;;;;10406882;28;20733;-63
2021/10/08 22:06:34;;;;;;;7.00;6.30;;;17.00;78.40;;;;;;10408154;28;20267;-63
2021/10/08 22:11:58;;;;;;;7.50;6.47;;;17.00;78.50;;;;;;10446306;28;20590;-63
2021/10/08 22:17:20;;;;;;;6.33;5.73;;;17.00;78.50;;;;;;10423858;28;20220;-63
2021/10/08 22:22:43;;;;;;;7.00;6.30;;;17.00;78.50;;;;;;10416611;28;20574;-63
2021/10/08 22:28:19;;;;;;;6.50;5.87;;;17.00;78.50;;;;;;10415872;28;20237;-63
2021/10/08 22:33:41;;;;;;;6.90;5.97;;;17.00;78.50;;;;;;10415134;28;20194;-63
2021/10/08 22:39:04;;;;;;;6.30;5.40;;;17.00;79.10;;;;;;10451348;28;20227;-63
2021/10/08 22:44:27;;;;;;;6.80;6.00;;;17.00;78.50;;;;;;10414381;28;20202;-63
2021/10/08 22:49:50;;;;;;;6.27;5.67;;;17.00;79.00;;;;;;10437213;28;20201;-64
2021/10/08 22:55:12;;;;;;;6.97;6.37;;;17.00;78.50;;;;;;10455402;28;20205;-64
2021/10/08 23:00:37;;;;;;;6.90;6.20;;;17.00;78.50;;;;;;10451411;28;20230;-63
2021/10/08 23:06:10;;;;;;;6.37;5.77;;;17.00;78.40;;;;;;10439728;23;20229;-65
2021/10/08 23:11:42;;;;;;;6.53;5.93;;;17.00;78.40;;;;;;10443591;28;20666;-65
2021/10/08 23:17:05;;;;;;;6.70;6.00;;;17.00;78.40;;;;;;10448533;28;20221;-65
2021/10/08 23:22:27;;;;;;;6.20;5.60;;;17.00;78.40;;;;;;10453283;28;20583;-67
2021/10/08 23:27:50;;;;;;;7.50;5.77;;;17.00;78.30;;;;;;10416461;28;20220;-66
2021/10/08 23:33:13;;;;;;;6.17;5.40;;;17.00;78.30;;;;;;10415173;28;20673;-65
2021/10/08 23:38:35;;;;;;;6.17;5.57;;;17.00;78.30;;;;;;10415746;28;20585;-63
2021/10/08 23:43:57;;;;;;;5.67;5.13;;;17.00;78.30;;;;;;10413687;28;20244;-65
2021/10/08 23:49:21;;;;;;;8.20;5.93;;;17.00;78.30;;;;;;10441060;28;20189;-65
2021/10/08 23:54:43;;;;;;;6.10;5.50;;;17.00;78.30;;;;;;10438262;28;20221;-65
